createdAt,value
2022-12-19T00:00:38.444Z,17.57
2022-12-19T00:03:08.582Z,17.57
2022-12-19T00:05:40.627Z,16.20
2022-12-19T00:08:18.164Z,17.20
2022-12-19T00:10:56.908Z,16.13
2022-12-19T00:13:27.283Z,15.80
2022-12-19T00:16:03.993Z,16.93
2022-12-19T00:18:33.950Z,17.13
2022-12-19T00:21:05.840Z,17.90
2022-12-19T00:23:37.770Z,17.80
2022-12-19T00:26:13.090Z,18.17
2022-12-19T00:28:43.552Z,17.63
2022-12-19T00:31:20.354Z,16.40
2022-12-19T00:33:51.286Z,16.30
2022-12-19T00:36:23.170Z,18.83
2022-12-19T00:38:54.353Z,15.83
2022-12-19T00:41:25.625Z,16.67
2022-12-19T00:43:56.820Z,16.40
2022-12-19T00:46:30.995Z,16.50
2022-12-19T00:49:00.919Z,17.47
2022-12-19T00:51:32.575Z,15.87
2022-12-19T00:54:03.098Z,16.63
2022-12-19T00:56:37.710Z,16.50
2022-12-19T00:59:09.022Z,16.63
2022-12-19T01:01:43.855Z,17.27
2022-12-19T01:04:28.110Z,18.00
2022-12-19T01:07:01.921Z,17.70
2022-12-19T01:09:32.711Z,17.60
2022-12-19T01:12:14.832Z,18.13
2022-12-19T01:14:44.533Z,18.03
2022-12-19T01:17:16.839Z,18.33
2022-12-19T01:19:46.541Z,18.03
2022-12-19T01:22:16.718Z,17.23
2022-12-19T01:24:46.503Z,17.33
2022-12-19T01:27:16.264Z,17.30
2022-12-19T01:29:52.714Z,17.53
2022-12-19T01:32:25.828Z,16.90
2022-12-19T01:34:55.673Z,18.50
2022-12-19T01:37:25.514Z,16.60
2022-12-19T01:39:55.396Z,16.97
2022-12-19T01:42:26.129Z,16.63
2022-12-19T01:45:33.427Z,17.50
2022-12-19T01:48:21.617Z,16.97
2022-12-19T01:51:01.439Z,17.90
2022-12-19T01:53:37.329Z,16.97
2022-12-19T01:56:20.281Z,18.73
2022-12-19T01:58:55.415Z,17.83
2022-12-19T02:01:40.872Z,18.03
2022-12-19T02:04:24.630Z,18.23
2022-12-19T02:06:55.900Z,18.63
2022-12-19T02:09:25.655Z,17.20
2022-12-19T02:11:56.317Z,17.67
2022-12-19T02:14:26.451Z,17.20
2022-12-19T02:17:01.925Z,15.93
2022-12-19T02:20:02.649Z,16.93
2022-12-19T02:22:43.182Z,17.53
2022-12-19T02:25:45.699Z,17.83
2022-12-19T02:28:35.742Z,17.00
2022-12-19T02:31:17.483Z,17.23
2022-12-19T02:33:55.464Z,19.40
2022-12-19T02:36:38.992Z,16.63
2022-12-19T02:39:13.717Z,19.20
2022-12-19T02:41:49.151Z,17.60
2022-12-19T02:44:24.773Z,18.27
2022-12-19T02:46:58.349Z,18.40
2022-12-19T02:49:31.139Z,18.30
2022-12-19T02:52:01.206Z,19.67
2022-12-19T02:54:30.966Z,19.30
2022-12-19T02:57:12.364Z,17.20
2022-12-19T02:59:55.303Z,18.17
2022-12-19T03:02:39.153Z,19.13
2022-12-19T03:05:17.163Z,19.00
2022-12-19T03:07:54.131Z,18.50
2022-12-19T03:10:34.571Z,18.40
2022-12-19T03:13:09.054Z,18.87
2022-12-19T03:15:43.231Z,18.87
2022-12-19T03:18:16.288Z,18.23
2022-12-19T03:20:51.110Z,19.37
2022-12-19T03:23:21.544Z,18.77
2022-12-19T03:25:55.257Z,20.00
2022-12-19T03:28:30.133Z,20.27
2022-12-19T03:31:02.743Z,20.50
2022-12-19T03:33:37.092Z,20.50
2022-12-19T03:36:10.964Z,20.57
2022-12-19T03:38:43.389Z,20.03
2022-12-19T03:41:15.676Z,19.83
2022-12-19T03:43:45.620Z,19.20
2022-12-19T03:46:21.760Z,22.53
2022-12-19T03:48:57.342Z,20.13
2022-12-19T03:51:34.703Z,21.03
2022-12-19T03:54:09.098Z,19.57
2022-12-19T03:56:45.941Z,19.80
2022-12-19T03:59:22.315Z,19.73
2022-12-19T04:01:54.798Z,18.87
2022-12-19T04:04:29.996Z,19.83
2022-12-19T04:07:01.674Z,20.73
2022-12-19T04:09:33.440Z,20.47
2022-12-19T04:12:05.970Z,19.80
2022-12-19T04:14:38.640Z,20.60
2022-12-19T04:17:16.665Z,19.93
2022-12-19T04:19:54.251Z,19.73
2022-12-19T04:22:29.964Z,21.03
2022-12-19T04:25:02.283Z,21.10
2022-12-19T04:27:34.328Z,20.67
2022-12-19T04:30:05.590Z,20.93
2022-12-19T04:32:38.435Z,20.70
2022-12-19T04:35:11.697Z,22.57
2022-12-19T04:37:41.612Z,20.80
2022-12-19T04:40:12.926Z,21.90
2022-12-19T04:42:42.641Z,20.73
2022-12-19T04:45:13.320Z,21.33
2022-12-19T04:47:43.225Z,21.93
2022-12-19T04:50:15.734Z,22.60
2022-12-19T04:52:45.417Z,22.87
2022-12-19T04:55:15.169Z,22.07
2022-12-19T04:57:44.874Z,20.23
2022-12-19T05:00:16.023Z,21.37
2022-12-19T05:02:45.836Z,20.20
2022-12-19T05:05:19.051Z,19.03
2022-12-19T05:07:49.306Z,19.67
2022-12-19T05:10:19.091Z,20.63
2022-12-19T05:12:48.831Z,21.50
2022-12-19T05:15:18.647Z,22.27
2022-12-19T05:17:48.367Z,21.10
2022-12-19T05:20:21.010Z,22.07
2022-12-19T05:22:50.880Z,21.20
2022-12-19T05:25:20.715Z,22.67
2022-12-19T05:27:50.530Z,21.30
2022-12-19T05:30:20.362Z,21.27
2022-12-19T05:32:50.142Z,20.43
2022-12-19T05:35:22.485Z,20.90
2022-12-19T05:37:52.451Z,20.07
2022-12-19T05:40:22.185Z,20.17
2022-12-19T05:42:51.917Z,21.43
2022-12-19T05:45:21.707Z,20.40
2022-12-19T05:47:51.623Z,20.20
2022-12-19T05:50:23.986Z,19.10
2022-12-19T05:52:53.769Z,21.37
2022-12-19T05:55:23.524Z,21.10
2022-12-19T05:57:53.312Z,19.47
2022-12-19T06:00:23.901Z,18.30
2022-12-19T06:02:53.719Z,18.63
2022-12-19T06:05:26.130Z,18.67
2022-12-19T06:07:55.846Z,17.40
2022-12-19T06:10:25.567Z,17.23
2022-12-19T06:12:55.296Z,17.97
2022-12-19T06:15:25.142Z,16.60
2022-12-19T06:17:57.070Z,16.47
2022-12-19T06:20:29.453Z,15.97
2022-12-19T06:22:59.246Z,16.37
2022-12-19T06:25:29.068Z,15.20
2022-12-19T06:27:58.868Z,14.67
2022-12-19T06:30:28.666Z,14.17
2022-12-19T06:32:58.512Z,15.03
2022-12-19T06:35:31.144Z,14.23
2022-12-19T06:38:01.233Z,13.63
2022-12-19T06:40:43.465Z,13.97
2022-12-19T06:43:13.311Z,13.80
2022-12-19T06:45:43.075Z,14.73
2022-12-19T06:48:12.959Z,13.03
2022-12-19T06:50:45.420Z,14.23
2022-12-19T06:53:15.280Z,13.33
2022-12-19T06:55:45.394Z,12.53
2022-12-19T06:58:16.070Z,12.40
2022-12-19T07:00:48.067Z,12.50
2022-12-19T07:03:21.728Z,13.77
2022-12-19T07:05:54.123Z,12.40
2022-12-19T07:08:23.880Z,11.80
2022-12-19T07:10:53.966Z,12.17
2022-12-19T07:13:23.813Z,11.70
2022-12-19T07:15:55.410Z,9.00
2022-12-19T07:18:25.211Z,9.83
2022-12-19T07:20:59.640Z,10.63
2022-12-19T07:23:29.499Z,9.70
2022-12-19T07:26:00.724Z,9.80
2022-12-19T07:28:30.570Z,8.63
2022-12-19T07:31:00.333Z,9.87
2022-12-19T07:33:30.164Z,9.87
2022-12-19T07:36:02.595Z,9.57
2022-12-19T07:38:32.386Z,9.77
2022-12-19T07:41:04.162Z,9.60
2022-12-19T07:43:34.061Z,8.57
2022-12-19T07:46:03.846Z,9.93
2022-12-19T07:48:33.943Z,9.80
2022-12-19T07:51:10.584Z,10.33
2022-12-19T07:53:40.427Z,8.93
2022-12-19T07:56:11.243Z,9.30
2022-12-19T07:58:41.310Z,8.70
2022-12-19T08:01:12.354Z,8.43
2022-12-19T08:03:42.312Z,9.23
2022-12-19T08:06:14.879Z,9.13
2022-12-19T08:08:44.670Z,8.80
2022-12-19T08:11:17.440Z,8.90
2022-12-19T08:13:47.289Z,8.00
2022-12-19T08:16:17.702Z,8.77
2022-12-19T08:18:48.026Z,9.07
2022-12-19T08:21:20.369Z,8.70
2022-12-19T08:23:50.145Z,8.03
2022-12-19T08:26:25.557Z,9.00
2022-12-19T08:28:55.813Z,8.53
2022-12-19T08:31:27.743Z,8.40
2022-12-19T08:33:59.453Z,7.57
2022-12-19T08:36:31.778Z,8.00
2022-12-19T08:39:01.510Z,8.37
2022-12-19T08:41:31.227Z,7.67
2022-12-19T08:44:01.966Z,8.30
2022-12-19T08:46:31.986Z,8.50
2022-12-19T08:49:01.998Z,7.73
2022-12-19T08:51:34.610Z,8.60
2022-12-19T08:54:05.156Z,7.50
2022-12-19T08:56:50.501Z,8.00
2022-12-19T08:59:30.201Z,8.63
2022-12-19T09:02:01.517Z,7.67
2022-12-19T09:05:52.854Z,8.40
2022-12-19T09:07:38.862Z,8.93
2022-12-19T09:10:10.189Z,8.27
2022-12-19T09:12:39.954Z,8.20
2022-12-19T09:15:10.547Z,8.50
2022-12-19T09:17:40.663Z,8.33
2022-12-19T09:20:12.271Z,9.10
2022-12-19T09:22:44.862Z,8.83
2022-12-19T09:25:14.655Z,8.80
2022-12-19T09:28:17.964Z,9.90
2022-12-19T09:30:34.539Z,9.20
2022-12-19T09:33:05.842Z,9.57
2022-12-19T09:35:35.590Z,9.73
2022-12-19T09:38:07.968Z,9.20
2022-12-19T09:40:54.634Z,10.73
2022-12-19T09:43:41.144Z,10.57
2022-12-19T09:46:19.380Z,10.10
2022-12-19T09:48:54.581Z,10.20
2022-12-19T09:51:37.398Z,9.70
2022-12-19T09:54:17.208Z,9.73
2022-12-19T09:56:48.475Z,10.63
2022-12-19T09:59:39.713Z,10.30
2022-12-19T10:02:26.970Z,9.90
2022-12-19T10:05:16.872Z,10.03
2022-12-19T10:08:08.468Z,10.60
2022-12-19T10:12:39.486Z,12.00
2022-12-19T10:14:03.557Z,9.83
2022-12-19T10:17:08.503Z,10.67
2022-12-19T10:19:45.738Z,10.07
2022-12-19T10:22:26.841Z,10.67
2022-12-19T10:25:17.231Z,10.37
2022-12-19T10:27:59.662Z,10.20
2022-12-19T10:30:33.690Z,10.30
2022-12-19T10:33:20.570Z,10.80
2022-12-19T10:35:57.571Z,9.70
2022-12-19T10:38:38.805Z,9.70
2022-12-19T10:41:19.449Z,10.43
2022-12-19T10:43:59.590Z,10.37
2022-12-19T10:46:40.512Z,9.90
2022-12-19T10:49:17.334Z,10.70
2022-12-19T10:51:56.612Z,11.00
2022-12-19T10:54:33.402Z,10.80
2022-12-19T10:57:21.138Z,10.33
2022-12-19T11:00:04.829Z,10.60
2022-12-19T11:02:44.609Z,11.00
2022-12-19T11:05:28.024Z,9.93
2022-12-19T11:08:06.837Z,10.07
2022-12-19T11:12:42.475Z,10.07
2022-12-19T11:20:06.090Z,9.27
2022-12-19T11:21:11.703Z,9.87
2022-12-19T11:29:41.548Z,9.97
2022-12-19T11:30:41.365Z,10.00
2022-12-19T11:30:47.446Z,9.40
2022-12-19T11:30:47.824Z,10.40
2022-12-19T11:32:31.999Z,10.27
2022-12-19T11:34:09.693Z,9.43
2022-12-19T11:36:45.852Z,9.13
2022-12-19T11:39:23.177Z,9.00
2022-12-19T11:42:03.284Z,8.63
2022-12-19T11:44:39.047Z,8.87
2022-12-19T11:47:21.727Z,8.43
2022-12-19T11:50:01.547Z,8.40
2022-12-19T11:55:43.630Z,7.70
2022-12-19T11:58:14.140Z,8.63
2022-12-19T12:00:53.604Z,8.20
2022-12-19T12:04:01.734Z,9.00
2022-12-19T12:06:39.925Z,8.03
2022-12-19T12:12:22.395Z,8.57
2022-12-19T12:22:19.209Z,8.57
2022-12-19T12:24:48.052Z,8.30
2022-12-19T12:31:08.710Z,8.33
2022-12-19T12:31:31.739Z,8.10
2022-12-19T12:31:47.315Z,8.23
2022-12-19T12:31:50.629Z,7.40
2022-12-19T12:31:52.922Z,8.40
2022-12-19T12:35:38.052Z,8.70
2022-12-19T12:38:12.230Z,8.40
2022-12-19T12:39:43.003Z,7.70
2022-12-19T12:42:21.449Z,7.77
2022-12-19T12:44:55.644Z,7.90
2022-12-19T12:47:27.119Z,8.00
2022-12-19T12:50:00.853Z,7.60
2022-12-19T12:52:38.254Z,7.27
2022-12-19T12:55:17.525Z,7.67
2022-12-19T12:57:47.357Z,8.07
2022-12-19T13:00:24.058Z,7.73
2022-12-19T13:02:57.957Z,7.60
2022-12-19T13:05:55.998Z,7.90
2022-12-19T13:08:39.264Z,7.43
2022-12-19T13:11:34.607Z,7.33
2022-12-19T13:14:04.437Z,7.00
2022-12-19T13:16:56.090Z,7.80
2022-12-19T13:19:29.342Z,6.80
2022-12-19T13:22:21.726Z,6.30
2022-12-19T13:24:55.915Z,7.20
2022-12-19T13:27:36.699Z,6.80
2022-12-19T13:30:21.603Z,7.00
2022-12-19T13:33:10.849Z,7.10
2022-12-19T13:39:45.238Z,7.30
2022-12-19T13:39:51.268Z,7.00
2022-12-19T13:41:55.105Z,7.93
2022-12-19T13:44:25.329Z,6.63
2022-12-19T13:46:58.059Z,7.57
2022-12-19T13:49:34.663Z,8.20
2022-12-19T13:52:07.987Z,7.43
2022-12-19T13:54:48.867Z,7.40
2022-12-19T13:57:28.281Z,7.10
2022-12-19T14:00:02.975Z,6.47
2022-12-19T14:02:44.976Z,6.97
2022-12-19T14:05:48.585Z,7.10
2022-12-19T14:08:22.463Z,6.37
2022-12-19T14:11:40.505Z,7.57
2022-12-19T14:14:15.064Z,6.70
2022-12-19T14:16:49.145Z,6.43
2022-12-19T14:19:24.599Z,6.57
2022-12-19T14:22:10.193Z,7.27
2022-12-19T14:24:42.475Z,7.77
2022-12-19T14:28:20.451Z,7.47
2022-12-19T14:30:29.828Z,7.87
2022-12-19T14:33:45.424Z,7.60
2022-12-19T14:36:06.919Z,8.13
2022-12-19T14:39:23.376Z,8.57
2022-12-19T14:42:00.881Z,8.77
2022-12-19T14:53:52.265Z,7.77
2022-12-19T14:54:01.163Z,8.37
2022-12-19T14:54:07.659Z,8.00
2022-12-19T14:54:31.210Z,8.03
2022-12-19T14:56:57.665Z,8.57
2022-12-19T14:59:08.494Z,8.87
2022-12-19T15:01:38.784Z,7.70
2022-12-19T15:04:50.229Z,8.33
2022-12-19T15:07:12.915Z,7.83
2022-12-19T15:11:08.036Z,7.83
2022-12-19T15:14:48.363Z,7.20
2022-12-19T15:15:58.961Z,7.13
2022-12-19T15:18:31.482Z,6.87
2022-12-19T15:21:05.839Z,7.13
2022-12-19T15:23:35.850Z,6.60
2022-12-19T15:26:08.575Z,7.00
2022-12-19T15:28:42.197Z,6.80
2022-12-19T15:31:24.555Z,6.70
2022-12-19T15:36:46.802Z,6.67
2022-12-19T15:39:17.815Z,6.60
2022-12-19T15:41:49.630Z,6.50
2022-12-19T15:44:22.908Z,7.13
2022-12-19T15:46:52.769Z,6.13
2022-12-19T15:49:24.096Z,6.70
2022-12-19T15:51:56.530Z,6.13
2022-12-19T15:57:32.110Z,6.43
2022-12-19T16:00:05.253Z,6.37
2022-12-19T16:03:21.341Z,6.10
2022-12-19T16:05:29.407Z,6.40
2022-12-19T16:08:02.042Z,5.97
2022-12-19T16:10:32.285Z,6.03
2022-12-19T16:13:02.057Z,6.20
2022-12-19T16:15:34.327Z,6.10
2022-12-19T16:18:05.851Z,5.93
2022-12-19T16:20:39.579Z,6.40
2022-12-19T16:23:12.485Z,6.77
2022-12-19T16:25:44.355Z,5.93
2022-12-19T16:28:20.595Z,5.87
2022-12-19T16:30:51.471Z,5.97
2022-12-19T16:33:24.571Z,6.30
2022-12-19T16:36:04.085Z,6.80
2022-12-19T16:38:37.686Z,6.00
2022-12-19T16:41:07.587Z,6.50
2022-12-19T16:43:41.443Z,6.30
2022-12-19T16:46:18.526Z,6.70
2022-12-19T16:48:48.882Z,6.70
2022-12-19T16:51:22.392Z,7.20
2022-12-19T16:53:57.664Z,6.67
2022-12-19T16:56:31.131Z,7.23
2022-12-19T16:59:03.012Z,6.90
2022-12-19T17:01:33.125Z,7.13
2022-12-19T17:04:03.002Z,7.23
2022-12-19T17:06:32.816Z,8.07
2022-12-19T17:09:05.186Z,7.53
2022-12-19T17:11:34.906Z,7.50
2022-12-19T17:14:08.440Z,8.53
2022-12-19T17:16:38.426Z,8.03
2022-12-19T17:19:08.581Z,8.30
2022-12-19T17:21:39.405Z,7.70
2022-12-19T17:24:15.844Z,7.57
2022-12-19T17:26:45.960Z,7.60
2022-12-19T17:29:16.580Z,8.77
2022-12-19T17:31:46.653Z,8.63
2022-12-19T17:34:20.641Z,7.47
2022-12-19T17:36:50.519Z,7.63
2022-12-19T17:39:25.768Z,7.33
2022-12-19T17:41:58.416Z,7.53
2022-12-19T17:44:28.320Z,7.27
2022-12-19T17:46:58.077Z,7.10
2022-12-19T17:49:32.112Z,6.97
2022-12-19T17:52:02.917Z,7.40
2022-12-19T17:54:35.272Z,6.50
2022-12-19T17:57:04.983Z,6.73
2022-12-19T17:59:34.842Z,7.03
2022-12-19T18:02:04.812Z,6.43
2022-12-19T18:04:34.852Z,6.23
2022-12-19T18:07:04.624Z,6.47
2022-12-19T18:09:37.082Z,6.17
2022-12-19T18:12:07.182Z,6.40
2022-12-19T18:14:37.447Z,5.90
2022-12-19T18:17:07.951Z,6.33
2022-12-19T18:19:37.920Z,6.20
2022-12-19T18:22:14.567Z,5.87
2022-12-19T18:24:46.983Z,6.27
2022-12-19T18:27:16.778Z,6.50
2022-12-19T18:29:46.520Z,6.20
2022-12-19T18:32:20.370Z,5.77
2022-12-19T18:34:50.347Z,6.70
2022-12-19T18:37:20.284Z,6.40
2022-12-19T18:39:55.720Z,5.90
2022-12-19T18:42:25.455Z,5.80
2022-12-19T18:44:55.513Z,6.10
2022-12-19T18:47:26.870Z,5.73
2022-12-19T18:49:56.678Z,5.93
2022-12-19T18:52:26.524Z,6.00
2022-12-19T18:54:59.139Z,6.17
2022-12-19T18:57:29.004Z,6.43
2022-12-19T18:59:58.748Z,6.23
2022-12-19T19:02:30.368Z,5.97
2022-12-19T19:05:00.448Z,6.07
2022-12-19T19:07:30.286Z,6.43
2022-12-19T19:10:02.667Z,6.33
2022-12-19T19:12:32.589Z,5.67
2022-12-19T19:15:02.425Z,6.67
2022-12-19T19:17:32.542Z,6.30
2022-12-19T19:20:02.597Z,6.27
2022-12-19T19:22:32.507Z,6.00
2022-12-19T19:25:04.852Z,6.10
2022-12-19T19:27:34.555Z,6.53
2022-12-19T19:30:04.845Z,6.30
2022-12-19T19:32:35.444Z,6.03
2022-12-19T19:35:09.659Z,6.70
2022-12-19T19:37:40.667Z,6.47
2022-12-19T19:40:14.720Z,5.83
2022-12-19T19:42:44.426Z,6.37
2022-12-19T19:45:14.696Z,6.70
2022-12-19T19:47:45.684Z,6.53
2022-12-19T19:50:15.925Z,6.20
2022-12-19T19:52:45.678Z,6.90
2022-12-19T19:55:17.994Z,6.43
2022-12-19T19:57:48.133Z,5.97
2022-12-19T20:00:18.522Z,6.27
2022-12-19T20:02:48.583Z,6.23
2022-12-19T20:05:18.700Z,5.97
2022-12-19T20:07:48.404Z,6.10
2022-12-19T20:10:20.909Z,6.37
2022-12-19T20:12:50.625Z,6.00
2022-12-19T20:15:22.729Z,6.67
2022-12-19T20:17:55.516Z,5.80
2022-12-19T20:20:25.577Z,6.60
2022-12-19T20:22:55.320Z,7.20
2022-12-19T20:25:27.728Z,6.17
2022-12-19T20:27:57.506Z,5.70
2022-12-19T20:30:27.260Z,5.43
2022-12-19T20:32:57.291Z,5.90
2022-12-19T20:35:27.044Z,6.00
2022-12-19T20:37:56.814Z,6.70
2022-12-19T20:40:29.377Z,6.53
2022-12-19T20:42:59.171Z,6.07
2022-12-19T20:45:28.942Z,5.60
2022-12-19T20:47:58.673Z,6.23
2022-12-19T20:50:28.432Z,5.97
2022-12-19T20:52:58.285Z,5.93
2022-12-19T20:55:30.671Z,5.60
2022-12-19T20:58:00.460Z,5.67
2022-12-19T21:00:30.209Z,5.63
2022-12-19T21:03:27.087Z,6.43
2022-12-19T21:05:55.300Z,6.00
2022-12-19T21:08:25.358Z,5.77
2022-12-19T21:10:57.797Z,5.97
2022-12-19T21:13:27.542Z,5.47
2022-12-19T21:15:58.641Z,5.60
2022-12-19T21:18:29.338Z,5.70
2022-12-19T21:20:59.693Z,6.23
2022-12-19T21:23:30.196Z,5.60
2022-12-19T21:26:04.927Z,5.83
2022-12-19T21:28:34.917Z,6.00
2022-12-19T21:31:06.868Z,5.70
2022-12-19T21:33:37.199Z,6.07
2022-12-19T21:36:11.159Z,6.37
2022-12-19T21:38:41.503Z,5.90
2022-12-19T21:41:18.948Z,6.13
2022-12-19T21:43:51.753Z,5.90
2022-12-19T21:46:22.801Z,6.00
2022-12-19T21:48:55.109Z,5.67
2022-12-19T21:51:27.672Z,5.83
2022-12-19T21:54:00.566Z,5.80
2022-12-19T21:56:34.521Z,5.30
2022-12-19T21:59:06.743Z,5.53
2022-12-19T22:01:37.062Z,6.03
2022-12-19T22:04:09.367Z,5.40
2022-12-19T22:06:40.140Z,5.20
2022-12-19T22:09:12.104Z,5.70
2022-12-19T22:11:44.986Z,5.43
2022-12-19T22:14:15.702Z,5.97
2022-12-19T22:16:45.857Z,5.37
2022-12-19T22:19:17.377Z,4.97
2022-12-19T22:21:48.431Z,5.97
2022-12-19T22:24:20.122Z,5.60
2022-12-19T22:26:52.475Z,5.50
2022-12-19T22:29:22.336Z,5.47
2022-12-19T22:31:52.414Z,5.40
2022-12-19T22:34:24.092Z,4.93
2022-12-19T22:36:53.831Z,5.60
2022-12-19T22:39:24.194Z,5.63
2022-12-19T22:41:56.578Z,4.80
2022-12-19T22:44:27.493Z,5.33
2022-12-19T22:46:57.523Z,5.70
2022-12-19T22:49:27.260Z,5.17
2022-12-19T22:51:56.975Z,4.93
2022-12-19T22:54:26.731Z,5.07
2022-12-19T22:56:59.036Z,5.13
2022-12-19T22:59:31.194Z,4.80
2022-12-19T23:02:01.166Z,5.60
2022-12-19T23:04:31.149Z,4.70
2022-12-19T23:07:00.915Z,5.27
2022-12-19T23:09:31.056Z,5.00
2022-12-19T23:12:03.415Z,4.97
2022-12-19T23:14:33.160Z,5.47
2022-12-19T23:17:03.009Z,5.20
2022-12-19T23:19:32.761Z,5.23
2022-12-19T23:22:03.354Z,4.70
2022-12-19T23:24:33.332Z,4.70
2022-12-19T23:27:05.835Z,4.67
2022-12-19T23:29:35.586Z,4.87
2022-12-19T23:32:05.453Z,4.50
2022-12-19T23:34:35.302Z,5.10
2022-12-19T23:37:12.951Z,4.77
2022-12-19T23:39:42.939Z,4.40
2022-12-19T23:42:15.254Z,4.50
2022-12-19T23:44:45.141Z,4.10
2022-12-19T23:47:14.939Z,4.80
2022-12-19T23:49:44.723Z,4.30
2022-12-19T23:52:14.779Z,4.70
2022-12-19T23:54:45.087Z,4.43
2022-12-19T23:57:17.498Z,4.70
2022-12-19T23:59:47.215Z,4.57
